PWSweather.com
Personal Weather Stations
Station Observations
TARRYHILL
Tarrytown, NY 10591

Tarrytown, NY 10591

Lat: 41.05185, Lon: -73.85296

Elevation: 341

Station Type: Davis Vantage Vue

www.tarrytownnyweather.com

High Low Average
Temperature 35.5°F1.9°C 21.2°F-6.0°C 28.1°F-2.2°C
Dew Point 24.5°F-4.2°C 10.5°F-11.9°C 15.8°F-9.0°C
Winds 3.5 mph 5.6 kmh Calm Calm 1.0 mph SW1.6 kmh SW
Wind Gusts 6.9 mph11.1 kmh -- 2.0 mph3.2 kmh
Humidity 80% 36% 61%
Pressure 30.86 in1045.0 mb 30.59 in1035.9 mb -
Precipitation 0.00 in0.0 mm - -
Hour Temp Dew Point Humidity Winds Wind Gusts Pressure Precip Precip Rate Daily Precip Total
12:00 AM 29.6°F-1.3°C 17.8°F-7.9°C 61% Calm Calm 1.2 mph1.9 kmh 30.70 in1039.6 mb - 0.00 in0.0 mm 0.00 in0.0 mm
12:15 AM 29.0°F-1.7°C 18.4°F-7.6°C 64% Calm Calm -- 30.71 in1040.0 mb - 0.00 in0.0 mm 0.00 in0.0 mm
12:30 AM 28.3°F-2.1°C 18.4°F-7.6°C 66% 1.2 mph N1.9 kmh N 3.5 mph5.6 kmh 30.72 in1040.3 mb - 0.00 in0.0 mm 0.00 in0.0 mm
12:45 AM 27.8°F-2.3°C 18.6°F-7.4°C 68% Calm Calm -- 30.72 in1040.3 mb - 0.00 in0.0 mm 0.00 in0.0 mm
01:00 AM 27.5°F-2.5°C 18.3°F-7.6°C 68% Calm Calm 2.3 mph3.7 kmh 30.72 in1040.3 mb - 0.00 in0.0 mm 0.00 in0.0 mm
01:15 AM 27.3°F-2.6°C 17.8°F-7.9°C 67% 1.2 mph NW1.9 kmh NW 3.5 mph5.6 kmh 30.72 in1040.3 mb - 0.00 in0.0 mm 0.00 in0.0 mm
01:30 AM 27.0°F-2.8°C 17.8°F-7.9°C 68% Calm Calm 1.2 mph1.9 kmh 30.73 in1040.6 mb - 0.00 in0.0 mm 0.00 in0.0 mm
01:45 AM 26.6°F-3.0°C 17.8°F-7.9°C 69% 1.2 mph N1.9 kmh N 4.6 mph7.4 kmh 30.73 in1040.6 mb - 0.00 in0.0 mm 0.00 in0.0 mm
02:00 AM 26.2°F-3.2°C 17.1°F-8.3°C 68% Calm Calm -- 30.75 in1041.3 mb - 0.00 in0.0 mm 0.00 in0.0 mm
02:15 AM 25.8°F-3.4°C 16.7°F-8.5°C 68% 1.2 mph W1.9 kmh W 2.3 mph3.7 kmh 30.75 in1041.3 mb - 0.00 in0.0 mm 0.00 in0.0 mm
02:30 AM 25.5°F-3.6°C 16.4°F-8.7°C 68% 1.2 mph NW1.9 kmh NW 3.5 mph5.6 kmh 30.75 in1041.3 mb - 0.00 in0.0 mm 0.00 in0.0 mm
02:45 AM 25.3°F-3.7°C 16.2°F-8.8°C 68% 2.3 mph N3.7 kmh N 5.8 mph9.3 kmh 30.75 in1041.3 mb - 0.00 in0.0 mm 0.00 in0.0 mm
03:00 AM 25.0°F-3.9°C 15.6°F-9.1°C 67% 2.3 mph NNW3.7 kmh NNW 2.3 mph3.7 kmh 30.75 in1041.3 mb - 0.00 in0.0 mm 0.00 in0.0 mm
03:15 AM 24.8°F-4.0°C 15.4°F-9.2°C 67% 1.2 mph NNW1.9 kmh NNW 3.5 mph5.6 kmh 30.76 in1041.7 mb - 0.00 in0.0 mm 0.00 in0.0 mm
03:30 AM 24.4°F-4.2°C 15.4°F-9.2°C 68% Calm Calm 1.2 mph1.9 kmh 30.76 in1041.7 mb - 0.00 in0.0 mm 0.00 in0.0 mm
03:45 AM 24.1°F-4.4°C 15.1°F-9.4°C 68% 1.2 mph NNW1.9 kmh NNW 2.3 mph3.7 kmh 30.77 in1042.0 mb - 0.00 in0.0 mm 0.00 in0.0 mm
04:00 AM 23.9°F-4.5°C 14.9°F-9.5°C 68% Calm Calm 1.2 mph1.9 kmh 30.77 in1042.0 mb - 0.00 in0.0 mm 0.00 in0.0 mm
04:15 AM 23.5°F-4.7°C 14.8°F-9.6°C 69% Calm Calm 1.2 mph1.9 kmh 30.78 in1042.3 mb - 0.00 in0.0 mm 0.00 in0.0 mm
04:30 AM 23.3°F-4.8°C 14.3°F-9.8°C 68% 1.2 mph NNW1.9 kmh NNW 3.5 mph5.6 kmh 30.78 in1042.3 mb - 0.00 in0.0 mm 0.00 in0.0 mm
04:45 AM 23.1°F-4.9°C 14.4°F-9.8°C 69% Calm Calm -- 30.79 in1042.7 mb - 0.00 in0.0 mm 0.00 in0.0 mm
05:00 AM 22.9°F-5.1°C 14.2°F-9.9°C 69% Calm Calm 1.2 mph1.9 kmh 30.80 in1043.0 mb - 0.00 in0.0 mm 0.00 in0.0 mm
05:15 AM 22.8°F-5.1°C 14.1°F-9.9°C 69% 1.2 mph NE1.9 kmh NE 3.5 mph5.6 kmh 30.80 in1043.0 mb - 0.00 in0.0 mm 0.00 in0.0 mm
05:30 AM 22.7°F-5.2°C 14.1°F-9.9°C 69% 1.2 mph N1.9 kmh N 2.3 mph3.7 kmh 30.80 in1043.0 mb - 0.00 in0.0 mm 0.00 in0.0 mm
05:45 AM 22.5°F-5.3°C 13.9°F-10.1°C 69% 1.2 mph NNW1.9 kmh NNW 1.2 mph1.9 kmh 30.81 in1043.3 mb - 0.00 in0.0 mm 0.00 in0.0 mm
06:00 AM 22.0°F-5.6°C 13.7°F-10.2°C 70% 1.2 mph NW1.9 kmh NW 1.2 mph1.9 kmh 30.80 in1043.0 mb - 0.00 in0.0 mm 0.00 in0.0 mm
06:15 AM 21.8°F-5.7°C 13.5°F-10.3°C 70% 1.2 mph NW1.9 kmh NW 2.3 mph3.7 kmh 30.80 in1043.0 mb - 0.00 in0.0 mm 0.00 in0.0 mm
06:30 AM 21.6°F-5.8°C 13.3°F-10.4°C 70% 1.2 mph NNW1.9 kmh NNW 2.3 mph3.7 kmh 30.81 in1043.3 mb - 0.00 in0.0 mm 0.00 in0.0 mm
06:45 AM 21.6°F-5.8°C 13.0°F-10.6°C 69% 1.2 mph NW1.9 kmh NW 3.5 mph5.6 kmh 30.82 in1043.7 mb - 0.00 in0.0 mm 0.00 in0.0 mm
07:00 AM 21.3°F-5.9°C 13.0°F-10.6°C 70% Calm Calm 1.2 mph1.9 kmh 30.82 in1043.7 mb - 0.00 in0.0 mm 0.00 in0.0 mm
07:15 AM 21.2°F-6.0°C 13.0°F-10.6°C 70% 1.2 mph NW1.9 kmh NW 3.5 mph5.6 kmh 30.82 in1043.7 mb - 0.00 in0.0 mm 0.00 in0.0 mm
07:30 AM 21.3°F-5.9°C 12.7°F-10.7°C 69% Calm Calm 1.2 mph1.9 kmh 30.83 in1044.0 mb - 0.00 in0.0 mm 0.00 in0.0 mm
07:45 AM 21.5°F-5.8°C 12.2°F-11.0°C 67% 2.3 mph N3.7 kmh N 3.5 mph5.6 kmh 30.83 in1044.0 mb - 0.00 in0.0 mm 0.00 in0.0 mm
08:00 AM 21.9°F-5.6°C 12.3°F-10.9°C 66% 1.2 mph NW1.9 kmh NW 3.5 mph5.6 kmh 30.84 in1044.4 mb - 0.00 in0.0 mm 0.00 in0.0 mm
08:15 AM 22.2°F-5.4°C 11.9°F-11.2°C 64% 1.2 mph NNW1.9 kmh NNW 5.8 mph9.3 kmh 30.85 in1044.7 mb - 0.00 in0.0 mm 0.00 in0.0 mm
08:30 AM 22.8°F-5.1°C 12.1°F-11.1°C 63% 2.3 mph NE3.7 kmh NE 3.5 mph5.6 kmh 30.86 in1045.0 mb - 0.00 in0.0 mm 0.00 in0.0 mm
08:45 AM 23.4°F-4.8°C 12.3°F-10.9°C 62% 1.2 mph ENE1.9 kmh ENE 1.2 mph1.9 kmh 30.86 in1045.0 mb - 0.00 in0.0 mm 0.00 in0.0 mm
09:00 AM 24.3°F-4.3°C 12.4°F-10.9°C 60% Calm Calm 1.2 mph1.9 kmh 30.86 in1045.0 mb - 0.00 in0.0 mm 0.00 in0.0 mm
09:15 AM 25.1°F-3.8°C 12.4°F-10.9°C 58% 2.3 mph NNW3.7 kmh NNW 4.6 mph7.4 kmh 30.86 in1045.0 mb - 0.00 in0.0 mm 0.00 in0.0 mm
09:30 AM 26.3°F-3.2°C 13.5°F-10.3°C 58% 2.3 mph NW3.7 kmh NW 5.8 mph9.3 kmh 30.86 in1045.0 mb - 0.00 in0.0 mm 0.00 in0.0 mm
09:45 AM 27.0°F-2.8°C 13.8°F-10.1°C 57% 3.5 mph NNW5.6 kmh NNW 4.6 mph7.4 kmh 30.86 in1045.0 mb - 0.00 in0.0 mm 0.00 in0.0 mm
10:00 AM 26.6°F-3.0°C 13.4°F-10.3°C 57% 2.3 mph NW3.7 kmh NW 4.6 mph7.4 kmh 30.86 in1045.0 mb - 0.00 in0.0 mm 0.00 in0.0 mm
10:15 AM 27.3°F-2.6°C 14.5°F-9.7°C 58% 1.2 mph N1.9 kmh N 6.9 mph11.1 kmh 30.86 in1045.0 mb - 0.00 in0.0 mm 0.00 in0.0 mm
10:30 AM 27.9°F-2.3°C 14.2°F-9.9°C 56% 1.2 mph W1.9 kmh W 3.5 mph5.6 kmh 30.85 in1044.7 mb - 0.00 in0.0 mm 0.00 in0.0 mm
10:45 AM 28.1°F-2.2°C 14.0°F-10.0°C 55% 1.2 mph NE1.9 kmh NE 1.2 mph1.9 kmh 30.85 in1044.7 mb - 0.00 in0.0 mm 0.00 in0.0 mm
11:00 AM 28.3°F-2.1°C 14.2°F-9.9°C 55% 2.3 mph NE3.7 kmh NE 3.5 mph5.6 kmh 30.85 in1044.7 mb - 0.00 in0.0 mm 0.00 in0.0 mm
11:15 AM 29.0°F-1.7°C 14.0°F-10.0°C 53% 1.2 mph WNW1.9 kmh WNW 2.3 mph3.7 kmh 30.85 in1044.7 mb - 0.00 in0.0 mm 0.00 in0.0 mm
11:30 AM 29.3°F-1.5°C 13.8°F-10.1°C 52% Calm Calm 3.5 mph5.6 kmh 30.84 in1044.4 mb - 0.00 in0.0 mm 0.00 in0.0 mm
11:45 AM 29.6°F-1.3°C 13.2°F-10.4°C 50% 2.3 mph WNW3.7 kmh WNW 3.5 mph5.6 kmh 30.84 in1044.4 mb - 0.00 in0.0 mm 0.00 in0.0 mm
12:00 PM 30.6°F-0.8°C 14.6°F-9.7°C 51% 1.2 mph WNW1.9 kmh WNW 3.5 mph5.6 kmh 30.83 in1044.0 mb - 0.00 in0.0 mm 0.00 in0.0 mm
12:15 PM 30.6°F-0.8°C 14.1°F-9.9°C 50% 1.2 mph WSW1.9 kmh WSW 3.5 mph5.6 kmh 30.83 in1044.0 mb - 0.00 in0.0 mm 0.00 in0.0 mm
12:30 PM 31.7°F-0.2°C 14.7°F-9.6°C 49% 1.2 mph WSW1.9 kmh WSW 2.3 mph3.7 kmh 30.82 in1043.7 mb - 0.00 in0.0 mm 0.00 in0.0 mm
12:45 PM 30.8°F-0.7°C 13.4°F-10.3°C 48% 2.3 mph W3.7 kmh W 4.6 mph7.4 kmh 30.81 in1043.3 mb - 0.00 in0.0 mm 0.00 in0.0 mm
01:00 PM 31.0°F-0.6°C 13.1°F-10.5°C 47% 1.2 mph WSW1.9 kmh WSW 3.5 mph5.6 kmh 30.81 in1043.3 mb - 0.00 in0.0 mm 0.00 in0.0 mm
01:15 PM 31.9°F-0.1°C 13.9°F-10.1°C 47% 1.2 mph WSW1.9 kmh WSW 4.6 mph7.4 kmh 30.80 in1043.0 mb - 0.00 in0.0 mm 0.00 in0.0 mm
01:30 PM 32.1°F0.1°C 13.6°F-10.2°C 46% 1.2 mph WSW1.9 kmh WSW 2.3 mph3.7 kmh 30.78 in1042.3 mb - 0.00 in0.0 mm 0.00 in0.0 mm
01:45 PM 32.1°F0.1°C 13.1°F-10.5°C 45% Calm Calm 1.2 mph1.9 kmh 30.77 in1042.0 mb - 0.00 in0.0 mm 0.00 in0.0 mm
02:00 PM 32.9°F0.5°C 14.4°F-9.8°C 46% 1.2 mph SW1.9 kmh SW 3.5 mph5.6 kmh 30.77 in1042.0 mb - 0.00 in0.0 mm 0.00 in0.0 mm
02:15 PM 33.0°F0.6°C 13.4°F-10.3°C 44% 2.3 mph WSW3.7 kmh WSW 2.3 mph3.7 kmh 30.77 in1042.0 mb - 0.00 in0.0 mm 0.00 in0.0 mm
02:30 PM 33.0°F0.6°C 13.4°F-10.3°C 44% 2.3 mph W3.7 kmh W 3.5 mph5.6 kmh 30.77 in1042.0 mb - 0.00 in0.0 mm 0.00 in0.0 mm
02:45 PM 33.2°F0.7°C 14.1°F-9.9°C 45% 1.2 mph SW1.9 kmh SW 1.2 mph1.9 kmh 30.77 in1042.0 mb - 0.00 in0.0 mm 0.00 in0.0 mm
03:00 PM 34.9°F1.6°C 15.1°F-9.4°C 44% 2.3 mph SW3.7 kmh SW 5.8 mph9.3 kmh 30.76 in1041.7 mb - 0.00 in0.0 mm 0.00 in0.0 mm
03:15 PM 35.0°F1.7°C 15.2°F-9.3°C 44% 1.2 mph SW1.9 kmh SW 3.5 mph5.6 kmh 30.75 in1041.3 mb - 0.00 in0.0 mm 0.00 in0.0 mm
03:30 PM 35.0°F1.7°C 14.7°F-9.6°C 43% 1.2 mph SSE1.9 kmh SSE 1.2 mph1.9 kmh 30.76 in1041.7 mb - 0.00 in0.0 mm 0.00 in0.0 mm
03:45 PM 35.1°F1.7°C 13.7°F-10.2°C 41% 1.2 mph WSW1.9 kmh WSW 3.5 mph5.6 kmh 30.76 in1041.7 mb - 0.00 in0.0 mm 0.00 in0.0 mm
04:00 PM 35.5°F1.9°C 12.4°F-10.9°C 38% 1.2 mph WSW1.9 kmh WSW 2.3 mph3.7 kmh 30.76 in1041.7 mb - 0.00 in0.0 mm 0.00 in0.0 mm
04:15 PM 35.3°F1.8°C 11.0°F-11.7°C 36% Calm Calm 2.3 mph3.7 kmh 30.76 in1041.7 mb - 0.00 in0.0 mm 0.00 in0.0 mm
04:30 PM 34.8°F1.6°C 10.5°F-11.9°C 36% Calm Calm 1.2 mph1.9 kmh 30.76 in1041.7 mb - 0.00 in0.0 mm 0.00 in0.0 mm
04:45 PM 34.6°F1.4°C 11.0°F-11.7°C 37% Calm Calm -- 30.75 in1041.3 mb - 0.00 in0.0 mm 0.00 in0.0 mm
05:00 PM 34.4°F1.3°C 11.4°F-11.4°C 38% Calm Calm 1.2 mph1.9 kmh 30.75 in1041.3 mb - 0.00 in0.0 mm 0.00 in0.0 mm
05:15 PM 32.9°F0.5°C 11.2°F-11.6°C 40% Calm Calm -- 30.74 in1041.0 mb - 0.00 in0.0 mm 0.00 in0.0 mm
05:30 PM 31.7°F-0.2°C 12.3°F-10.9°C 44% Calm Calm -- 30.74 in1041.0 mb - 0.00 in0.0 mm 0.00 in0.0 mm
05:45 PM 30.8°F-0.7°C 12.4°F-10.9°C 46% Calm Calm -- 30.75 in1041.3 mb - 0.00 in0.0 mm 0.00 in0.0 mm
06:00 PM 30.0°F-1.1°C 12.2°F-11.0°C 47% Calm Calm -- 30.75 in1041.3 mb - 0.00 in0.0 mm 0.00 in0.0 mm
06:15 PM 29.5°F-1.4°C 12.2°F-11.0°C 48% Calm Calm -- 30.74 in1041.0 mb - 0.00 in0.0 mm 0.00 in0.0 mm
06:30 PM 29.3°F-1.5°C 12.9°F-10.6°C 50% Calm Calm -- 30.73 in1040.6 mb - 0.00 in0.0 mm 0.00 in0.0 mm
06:45 PM 29.0°F-1.7°C 14.8°F-9.6°C 55% 1.2 mph SSW1.9 kmh SSW 3.5 mph5.6 kmh 30.73 in1040.6 mb - 0.00 in0.0 mm 0.00 in0.0 mm
07:00 PM 29.1°F-1.6°C 17.7°F-7.9°C 62% 2.3 mph S3.7 kmh S 3.5 mph5.6 kmh 30.72 in1040.3 mb - 0.00 in0.0 mm 0.00 in0.0 mm
07:15 PM 29.0°F-1.7°C 18.7°F-7.4°C 65% Calm Calm -- 30.72 in1040.3 mb - 0.00 in0.0 mm 0.00 in0.0 mm
07:30 PM 28.7°F-1.8°C 18.8°F-7.3°C 66% Calm Calm 2.3 mph3.7 kmh 30.72 in1040.3 mb - 0.00 in0.0 mm 0.00 in0.0 mm
07:45 PM 28.3°F-2.1°C 18.8°F-7.3°C 67% Calm Calm 1.2 mph1.9 kmh 30.72 in1040.3 mb - 0.00 in0.0 mm 0.00 in0.0 mm
08:00 PM 28.4°F-2.0°C 19.5°F-6.9°C 69% Calm Calm 1.2 mph1.9 kmh 30.71 in1040.0 mb - 0.00 in0.0 mm 0.00 in0.0 mm
08:15 PM 28.8°F-1.8°C 20.6°F-6.3°C 71% Calm Calm 2.3 mph3.7 kmh 30.71 in1040.0 mb - 0.00 in0.0 mm 0.00 in0.0 mm
08:30 PM 29.2°F-1.6°C 21.3°F-5.9°C 72% Calm Calm 1.2 mph1.9 kmh 30.70 in1039.6 mb - 0.00 in0.0 mm 0.00 in0.0 mm
08:45 PM 29.5°F-1.4°C 21.9°F-5.6°C 73% Calm Calm 1.2 mph1.9 kmh 30.70 in1039.6 mb - 0.00 in0.0 mm 0.00 in0.0 mm
09:00 PM 29.7°F-1.3°C 22.7°F-5.2°C 75% Calm Calm -- 30.69 in1039.3 mb - 0.00 in0.0 mm 0.00 in0.0 mm
09:15 PM 29.8°F-1.2°C 22.8°F-5.1°C 75% Calm Calm -- 30.68 in1038.9 mb - 0.00 in0.0 mm 0.00 in0.0 mm
09:30 PM 29.8°F-1.2°C 23.2°F-4.9°C 76% Calm Calm -- 30.67 in1038.6 mb - 0.00 in0.0 mm 0.00 in0.0 mm
09:45 PM 29.8°F-1.2°C 23.2°F-4.9°C 76% Calm Calm -- 30.66 in1038.3 mb - 0.00 in0.0 mm 0.00 in0.0 mm
10:00 PM 29.9°F-1.2°C 23.6°F-4.7°C 77% Calm Calm -- 30.65 in1037.9 mb - 0.00 in0.0 mm 0.00 in0.0 mm
10:15 PM 30.0°F-1.1°C 23.6°F-4.7°C 77% Calm Calm -- 30.64 in1037.6 mb - 0.00 in0.0 mm 0.00 in0.0 mm
10:30 PM 29.8°F-1.2°C 23.8°F-4.6°C 78% Calm Calm -- 30.64 in1037.6 mb - 0.00 in0.0 mm 0.00 in0.0 mm
10:45 PM 29.5°F-1.4°C 23.8°F-4.6°C 79% Calm Calm -- 30.63 in1037.3 mb - 0.00 in0.0 mm 0.00 in0.0 mm
11:00 PM 29.7°F-1.3°C 24.3°F-4.3°C 80% Calm Calm -- 30.62 in1036.9 mb - 0.00 in0.0 mm 0.00 in0.0 mm
11:15 PM 29.7°F-1.3°C 24.3°F-4.3°C 80% Calm Calm -- 30.61 in1036.6 mb - 0.00 in0.0 mm 0.00 in0.0 mm
11:30 PM 29.8°F-1.2°C 24.4°F-4.2°C 80% Calm Calm -- 30.60 in1036.2 mb - 0.00 in0.0 mm 0.00 in0.0 mm
11:45 PM 30.0°F-1.1°C 24.5°F-4.2°C 80% Calm Calm -- 30.59 in1035.9 mb - 0.00 in0.0 mm 0.00 in0.0 mm